createdAt,value
2019-03-29T00:01:12.887Z,99.90
2019-03-29T00:03:40.415Z,99.90
2019-03-29T00:06:07.980Z,99.90
2019-03-29T00:08:36.341Z,99.90
2019-03-29T00:11:04.029Z,99.90
2019-03-29T00:13:31.540Z,99.90
2019-03-29T00:15:59.994Z,99.90
2019-03-29T00:18:26.679Z,99.90
2019-03-29T00:20:54.210Z,99.90
2019-03-29T00:23:22.986Z,99.90
2019-03-29T00:25:49.339Z,99.90
2019-03-29T00:28:17.906Z,99.90
2019-03-29T00:30:45.443Z,99.90
2019-03-29T00:33:12.975Z,99.90
2019-03-29T00:35:40.531Z,99.90
2019-03-29T00:38:08.057Z,99.90
2019-03-29T00:40:35.619Z,99.90
2019-03-29T00:43:03.146Z,99.90
2019-03-29T00:45:30.711Z,99.90
2019-03-29T00:47:58.245Z,99.90
2019-03-29T00:50:25.801Z,99.90
2019-03-29T00:52:53.331Z,99.90
2019-03-29T00:55:20.941Z,99.90
2019-03-29T00:57:48.495Z,99.90
2019-03-29T01:00:16.026Z,99.90
2019-03-29T01:02:44.191Z,99.90
2019-03-29T01:05:11.224Z,99.90
2019-03-29T01:07:38.751Z,99.90
2019-03-29T01:10:06.282Z,99.90
2019-03-29T01:12:33.838Z,99.90
2019-03-29T01:15:01.373Z,99.90
2019-03-29T01:17:29.018Z,99.90
2019-03-29T01:19:56.557Z,99.90
2019-03-29T01:22:25.095Z,99.90
2019-03-29T01:24:52.627Z,99.90
2019-03-29T01:27:20.203Z,99.90
2019-03-29T01:29:47.727Z,99.90
2019-03-29T01:32:15.287Z,99.90
2019-03-29T01:34:43.122Z,99.90
2019-03-29T01:37:10.427Z,99.90
2019-03-29T01:39:37.987Z,99.90
2019-03-29T01:42:05.519Z,99.90
2019-03-29T01:44:33.070Z,99.90
2019-03-29T01:47:00.598Z,99.90
2019-03-29T01:49:28.160Z,99.90
2019-03-29T01:51:56.482Z,99.90
2019-03-29T01:54:24.041Z,99.90
2019-03-29T01:56:51.579Z,99.90
2019-03-29T01:59:19.139Z,99.90
2019-03-29T02:01:46.677Z,99.90
2019-03-29T02:04:14.236Z,99.90
2019-03-29T02:06:41.798Z,99.90
2019-03-29T02:09:09.371Z,99.90
2019-03-29T02:11:36.905Z,99.90
2019-03-29T02:14:04.462Z,99.90
2019-03-29T02:16:32.019Z,99.90
2019-03-29T02:18:59.582Z,99.90
2019-03-29T02:21:27.165Z,99.90
2019-03-29T02:23:54.692Z,99.90
2019-03-29T02:26:22.251Z,99.90
2019-03-29T02:28:49.782Z,99.90
2019-03-29T02:31:17.343Z,99.90
2019-03-29T02:33:45.649Z,99.90
2019-03-29T02:36:14.227Z,99.90
2019-03-29T02:38:54.886Z,99.90
2019-03-29T02:41:09.368Z,99.90
2019-03-29T02:43:38.436Z,99.90
2019-03-29T02:46:04.543Z,99.90
2019-03-29T02:48:33.102Z,99.90
2019-03-29T02:51:01.407Z,99.90
2019-03-29T02:53:28.962Z,99.90
2019-03-29T02:55:56.524Z,99.90
2019-03-29T02:58:24.093Z,99.90
2019-03-29T03:00:51.634Z,99.90
2019-03-29T03:03:19.203Z,99.90
2019-03-29T03:05:46.734Z,99.90
2019-03-29T03:08:14.327Z,99.90
2019-03-29T03:10:41.868Z,99.90
2019-03-29T03:13:09.402Z,99.90
2019-03-29T03:15:37.959Z,99.90
2019-03-29T03:18:05.500Z,99.90
2019-03-29T03:20:33.061Z,99.90
2019-03-29T03:23:00.621Z,99.90
2019-03-29T03:25:28.169Z,99.90
2019-03-29T03:27:55.727Z,99.90
2019-03-29T03:30:23.302Z,99.90
2019-03-29T03:32:50.909Z,99.90
2019-03-29T03:35:18.457Z,99.90
2019-03-29T03:37:46.036Z,99.90
2019-03-29T03:40:13.575Z,99.90
2019-03-29T03:42:41.146Z,99.90
2019-03-29T03:45:08.690Z,99.90
2019-03-29T03:47:36.255Z,99.90
2019-03-29T03:50:03.816Z,99.90
2019-03-29T03:52:31.357Z,99.90
2019-03-29T03:54:58.923Z,99.90
2019-03-29T03:57:26.502Z,99.90
2019-03-29T03:59:54.043Z,99.90
2019-03-29T04:02:21.608Z,99.90
2019-03-29T04:04:49.170Z,99.90
2019-03-29T04:07:16.712Z,99.90
2019-03-29T04:09:50.235Z,99.90
2019-03-29T04:12:11.891Z,99.90
2019-03-29T04:14:39.455Z,99.90
2019-03-29T04:17:06.987Z,99.90
2019-03-29T04:19:35.324Z,99.90
2019-03-29T04:22:02.996Z,99.90
2019-03-29T04:24:30.542Z,99.90
2019-03-29T04:26:58.115Z,99.90
2019-03-29T04:29:25.701Z,99.90
2019-03-29T04:31:54.248Z,99.90
2019-03-29T04:34:21.823Z,99.90
2019-03-29T04:36:49.359Z,99.90
2019-03-29T04:39:16.929Z,99.90
2019-03-29T04:41:44.464Z,99.90
2019-03-29T04:44:13.017Z,99.90
2019-03-29T04:46:43.551Z,99.90
2019-03-29T04:49:11.118Z,99.90
2019-03-29T04:51:38.658Z,99.90
2019-03-29T04:54:06.215Z,99.90
2019-03-29T04:56:33.756Z,99.90
2019-03-29T04:59:01.318Z,99.90
2019-03-29T05:01:28.887Z,99.90
2019-03-29T05:03:56.425Z,99.90
2019-03-29T05:06:23.977Z,99.90
2019-03-29T05:08:51.511Z,99.90
2019-03-29T05:11:19.072Z,99.90
2019-03-29T05:13:46.611Z,99.90
2019-03-29T05:16:14.175Z,99.90
2019-03-29T05:18:41.731Z,99.90
2019-03-29T05:21:09.263Z,99.90
2019-03-29T05:23:36.818Z,99.90
2019-03-29T05:26:04.502Z,99.90
2019-03-29T05:28:32.035Z,99.90
2019-03-29T05:30:59.623Z,99.90
2019-03-29T05:33:27.159Z,99.90
2019-03-29T05:35:54.723Z,99.90
2019-03-29T05:38:22.259Z,99.90
2019-03-29T05:40:49.794Z,99.90
2019-03-29T05:43:18.123Z,99.90
2019-03-29T05:45:45.659Z,99.90
2019-03-29T05:48:13.332Z,99.90
2019-03-29T05:50:40.872Z,99.90
2019-03-29T05:53:08.483Z,99.90
2019-03-29T05:55:36.012Z,99.90
2019-03-29T05:58:03.582Z,99.90
2019-03-29T06:00:31.147Z,99.90
2019-03-29T06:02:58.703Z,99.90
2019-03-29T06:05:26.239Z,99.90
2019-03-29T06:07:54.770Z,99.90
2019-03-29T06:10:22.326Z,99.90
2019-03-29T06:12:50.651Z,99.90
2019-03-29T06:15:18.189Z,99.90
2019-03-29T06:17:48.917Z,99.90
2019-03-29T06:20:14.329Z,99.90
2019-03-29T06:22:41.887Z,99.90
2019-03-29T06:25:10.380Z,99.90
2019-03-29T06:27:37.918Z,99.90
2019-03-29T06:30:05.484Z,99.90
2019-03-29T06:32:33.044Z,99.90
2019-03-29T06:35:00.622Z,99.90
2019-03-29T06:37:28.159Z,99.90
2019-03-29T06:39:56.719Z,99.90
2019-03-29T06:42:24.259Z,99.90
2019-03-29T06:44:51.819Z,99.90
2019-03-29T06:47:19.363Z,99.90
2019-03-29T06:49:46.918Z,99.90
2019-03-29T06:52:14.492Z,99.90
2019-03-29T06:54:42.051Z,99.90
2019-03-29T06:57:10.361Z,99.90
2019-03-29T06:59:37.925Z,99.90
2019-03-29T07:02:05.463Z,99.90
2019-03-29T07:04:33.975Z,99.90
2019-03-29T07:07:01.507Z,99.90
2019-03-29T07:09:29.074Z,99.90
2019-03-29T07:11:56.613Z,99.90
2019-03-29T07:14:24.156Z,99.90
2019-03-29T07:16:53.407Z,99.90
2019-03-29T07:19:20.951Z,99.90
2019-03-29T07:21:49.532Z,99.90
2019-03-29T07:24:17.091Z,99.90
2019-03-29T07:26:44.627Z,99.90
2019-03-29T07:29:12.162Z,99.90
2019-03-29T07:31:39.731Z,99.90
2019-03-29T07:34:07.387Z,99.90
2019-03-29T07:36:34.956Z,99.90
2019-03-29T07:39:02.521Z,99.90
2019-03-29T07:41:32.301Z,99.90
2019-03-29T07:43:57.647Z,99.90
2019-03-29T07:46:25.215Z,99.90
2019-03-29T07:48:52.759Z,99.90
2019-03-29T07:51:20.321Z,99.90
2019-03-29T07:53:47.869Z,99.90
2019-03-29T07:56:15.435Z,99.90
2019-03-29T07:58:42.979Z,99.90
2019-03-29T08:01:10.516Z,99.90
2019-03-29T08:03:38.084Z,99.90
2019-03-29T08:06:05.871Z,99.90
2019-03-29T08:08:34.542Z,99.90
2019-03-29T08:11:01.023Z,99.90
2019-03-29T08:13:28.602Z,99.90
2019-03-29T08:15:56.912Z,99.90
2019-03-29T08:18:24.480Z,99.90
2019-03-29T08:20:52.048Z,99.90
2019-03-29T08:23:19.605Z,99.90
2019-03-29T08:25:47.140Z,99.90
2019-03-29T08:28:14.703Z,99.90
2019-03-29T08:30:42.280Z,99.90
2019-03-29T08:33:10.863Z,99.90
2019-03-29T08:35:38.403Z,99.90
2019-03-29T08:38:06.409Z,99.90
2019-03-29T08:40:33.583Z,99.90
2019-03-29T08:43:01.143Z,99.90
2019-03-29T08:45:28.679Z,99.90
2019-03-29T08:47:56.238Z,99.90
2019-03-29T08:50:23.802Z,99.90
2019-03-29T08:52:52.127Z,99.90
2019-03-29T08:55:19.670Z,99.90
2019-03-29T08:57:47.207Z,99.90
2019-03-29T09:00:15.967Z,99.90
2019-03-29T09:02:42.380Z,99.90
2019-03-29T09:05:09.956Z,99.90
2019-03-29T09:07:44.674Z,99.90
2019-03-29T09:10:05.139Z,99.90
2019-03-29T09:12:32.672Z,99.90
2019-03-29T09:15:03.445Z,99.90
2019-03-29T09:17:27.819Z,99.90
2019-03-29T09:19:55.364Z,99.90
2019-03-29T09:22:23.740Z,99.90
2019-03-29T09:24:51.327Z,99.90
2019-03-29T09:27:18.867Z,99.90
2019-03-29T09:29:46.428Z,99.90
2019-03-29T09:32:13.972Z,99.90
2019-03-29T09:34:41.534Z,99.90
2019-03-29T09:37:09.075Z,99.90
2019-03-29T09:39:36.640Z,99.90
2019-03-29T09:42:04.211Z,99.90
2019-03-29T09:44:31.780Z,99.90
2019-03-29T09:46:59.327Z,99.90
2019-03-29T09:49:26.896Z,99.90
2019-03-29T09:51:54.462Z,99.90
2019-03-29T09:54:22.002Z,99.90
2019-03-29T09:56:49.569Z,99.90
2019-03-29T09:59:17.112Z,99.90
2019-03-29T10:01:44.648Z,99.90
2019-03-29T10:04:12.216Z,99.90
2019-03-29T10:06:39.784Z,99.90
2019-03-29T10:09:07.368Z,99.90
2019-03-29T10:11:34.903Z,99.90
2019-03-29T10:14:02.475Z,99.90
2019-03-29T10:16:30.039Z,99.90
2019-03-29T10:18:57.579Z,99.90
2019-03-29T10:21:25.139Z,99.90
2019-03-29T10:23:52.676Z,99.90
2019-03-29T10:26:20.247Z,99.90
2019-03-29T10:28:47.783Z,99.90
2019-03-29T10:31:15.315Z,99.90
2019-03-29T10:33:42.877Z,99.90
2019-03-29T10:36:10.443Z,99.90
2019-03-29T10:38:38.007Z,99.90
2019-03-29T10:41:05.633Z,99.90
2019-03-29T10:43:33.190Z,99.90
2019-03-29T10:46:00.846Z,99.90
2019-03-29T10:48:28.475Z,99.90
2019-03-29T10:50:56.017Z,99.90
2019-03-29T10:53:23.575Z,99.90
2019-03-29T10:55:51.111Z,99.90
2019-03-29T10:58:19.444Z,99.90
2019-03-29T11:00:47.776Z,99.90
2019-03-29T11:03:15.347Z,99.90
2019-03-29T11:05:42.912Z,99.90
2019-03-29T11:08:12.132Z,99.90
2019-03-29T11:10:38.054Z,99.90
2019-03-29T11:13:13.337Z,99.90
2019-03-29T11:15:33.195Z,99.90
2019-03-29T11:18:01.834Z,99.90
2019-03-29T11:20:29.345Z,99.90
2019-03-29T11:22:56.915Z,99.90
2019-03-29T11:25:24.452Z,99.90
2019-03-29T11:27:52.011Z,99.90
2019-03-29T11:30:19.570Z,99.90
2019-03-29T11:32:47.131Z,99.90
2019-03-29T11:35:14.671Z,99.90
2019-03-29T11:37:42.231Z,99.90
2019-03-29T11:40:09.821Z,99.90
2019-03-29T11:42:37.360Z,99.90
2019-03-29T11:45:04.891Z,99.90
2019-03-29T11:47:32.454Z,99.90
2019-03-29T11:49:59.991Z,99.90
2019-03-29T11:52:28.324Z,99.90
2019-03-29T11:54:56.862Z,99.90
2019-03-29T11:57:24.413Z,99.90
2019-03-29T11:59:52.954Z,99.90
2019-03-29T12:02:31.194Z,99.90
2019-03-29T12:04:48.131Z,99.90
2019-03-29T12:07:15.674Z,99.90
2019-03-29T12:09:43.247Z,99.90
2019-03-29T12:12:10.807Z,99.90
2019-03-29T12:14:38.377Z,99.90
2019-03-29T12:17:05.934Z,99.90
2019-03-29T12:19:33.506Z,99.90
2019-03-29T12:22:01.050Z,99.90
2019-03-29T12:24:28.592Z,99.90
2019-03-29T12:26:56.166Z,99.90
2019-03-29T12:29:23.713Z,99.90
2019-03-29T12:31:51.286Z,99.90
2019-03-29T12:34:18.869Z,98.30
2019-03-29T12:36:46.418Z,98.20
2019-03-29T12:39:14.755Z,97.60
2019-03-29T12:41:42.329Z,97.50
2019-03-29T12:44:09.863Z,97.50
2019-03-29T12:46:37.424Z,96.60
2019-03-29T12:49:04.992Z,96.40
2019-03-29T12:51:32.542Z,95.70
2019-03-29T12:54:00.192Z,95.90
2019-03-29T12:56:27.757Z,95.20
2019-03-29T12:58:56.315Z,94.80
2019-03-29T13:01:23.855Z,94.30
2019-03-29T13:03:51.479Z,94.40
2019-03-29T13:06:19.043Z,94.10
2019-03-29T13:08:46.579Z,94.30
2019-03-29T13:11:14.147Z,94.40
2019-03-29T13:13:41.712Z,93.00
2019-03-29T13:16:09.276Z,92.40
2019-03-29T13:18:36.840Z,92.40
2019-03-29T13:21:04.384Z,91.80
2019-03-29T13:23:32.927Z,92.20
2019-03-29T13:26:00.499Z,92.70
2019-03-29T13:28:28.157Z,91.40
2019-03-29T13:30:55.683Z,91.40
2019-03-29T13:33:23.227Z,90.20
2019-03-29T13:35:51.569Z,91.10
2019-03-29T13:38:20.702Z,91.10
2019-03-29T13:40:46.709Z,90.10
2019-03-29T13:43:14.283Z,90.10
2019-03-29T13:45:41.826Z,89.60
2019-03-29T13:48:09.387Z,88.50
2019-03-29T13:50:36.931Z,88.90
2019-03-29T13:53:04.490Z,88.90
2019-03-29T13:55:32.056Z,88.60
2019-03-29T13:57:59.627Z,88.00
2019-03-29T14:00:27.215Z,88.80
2019-03-29T14:02:54.756Z,87.00
2019-03-29T14:05:22.324Z,87.90
2019-03-29T14:07:49.868Z,88.60
2019-03-29T14:10:17.448Z,90.20
2019-03-29T14:12:44.978Z,88.60
2019-03-29T14:15:12.549Z,85.80
2019-03-29T14:17:40.149Z,88.10
2019-03-29T14:20:07.690Z,85.10
2019-03-29T14:22:35.235Z,86.90
2019-03-29T14:25:02.803Z,83.70
2019-03-29T14:27:30.384Z,83.10
2019-03-29T14:30:04.090Z,82.20
2019-03-29T14:32:25.536Z,81.40
2019-03-29T14:34:53.188Z,82.90
2019-03-29T14:37:20.756Z,81.60
2019-03-29T14:39:49.152Z,80.60
2019-03-29T14:42:16.687Z,80.20
2019-03-29T14:44:52.161Z,78.60
2019-03-29T14:47:11.874Z,77.60
2019-03-29T14:49:39.434Z,77.30
2019-03-29T14:52:06.970Z,76.70
2019-03-29T14:54:34.526Z,75.10
2019-03-29T14:57:05.310Z,74.50
2019-03-29T14:59:29.663Z,73.60
2019-03-29T15:01:57.978Z,71.30
2019-03-29T15:04:25.567Z,71.00
2019-03-29T15:06:53.186Z,70.40
2019-03-29T15:09:20.786Z,67.70
2019-03-29T15:11:48.319Z,66.90
2019-03-29T15:14:15.846Z,65.70
2019-03-29T15:16:43.411Z,66.00
2019-03-29T15:19:10.946Z,65.50
2019-03-29T15:21:38.509Z,63.90
2019-03-29T15:24:06.084Z,62.40
2019-03-29T15:26:33.615Z,61.10
2019-03-29T15:29:01.199Z,60.60
2019-03-29T15:31:28.755Z,56.80
2019-03-29T15:33:56.322Z,54.90
2019-03-29T15:36:23.871Z,54.00
2019-03-29T15:38:51.432Z,53.20
2019-03-29T15:41:18.962Z,53.00
2019-03-29T15:43:46.522Z,52.90
2019-03-29T15:46:14.088Z,51.50
2019-03-29T15:48:41.618Z,50.90
2019-03-29T15:51:09.182Z,51.80
2019-03-29T15:53:36.715Z,53.10
2019-03-29T15:56:04.600Z,55.30
2019-03-29T15:58:32.904Z,58.50
2019-03-29T16:01:00.988Z,57.90
2019-03-29T16:03:28.519Z,59.40
2019-03-29T16:05:56.050Z,59.00
2019-03-29T16:08:23.607Z,57.90
2019-03-29T16:10:51.168Z,55.20
2019-03-29T16:13:18.727Z,55.10
2019-03-29T16:15:46.259Z,54.80
2019-03-29T16:18:13.790Z,53.90
2019-03-29T16:20:49.417Z,56.10
2019-03-29T16:23:16.949Z,59.20
2019-03-29T16:25:45.275Z,61.80
2019-03-29T16:28:12.815Z,61.80
2019-03-29T16:30:40.377Z,62.70
2019-03-29T16:33:07.934Z,62.70
2019-03-29T16:35:35.467Z,63.40
2019-03-29T16:38:03.770Z,65.70
2019-03-29T16:40:31.441Z,65.60
2019-03-29T16:42:58.906Z,66.00
2019-03-29T16:45:26.460Z,65.00
2019-03-29T16:47:54.002Z,65.70
2019-03-29T16:50:21.558Z,66.60
2019-03-29T16:52:49.092Z,66.70
2019-03-29T16:55:16.623Z,66.20
2019-03-29T16:57:44.962Z,74.50
2019-03-29T17:00:12.909Z,74.50
2019-03-29T17:02:40.106Z,78.30
2019-03-29T17:05:07.664Z,79.60
2019-03-29T17:07:35.203Z,80.00
2019-03-29T17:10:02.763Z,80.80
2019-03-29T17:12:30.328Z,80.10
2019-03-29T17:14:57.891Z,80.40
2019-03-29T17:17:25.427Z,82.50
2019-03-29T17:19:52.959Z,85.40
2019-03-29T17:22:20.519Z,87.50
2019-03-29T17:24:56.914Z,88.40
2019-03-29T17:27:15.674Z,89.40
2019-03-29T17:29:43.207Z,90.20
2019-03-29T17:32:10.774Z,90.40
2019-03-29T17:34:39.022Z,90.70
2019-03-29T17:37:06.556Z,91.30
2019-03-29T17:39:38.850Z,92.20
2019-03-29T17:42:06.411Z,92.40
2019-03-29T17:44:33.968Z,93.00
2019-03-29T17:47:01.502Z,93.10
2019-03-29T17:49:29.028Z,93.30
2019-03-29T17:51:56.602Z,93.20
2019-03-29T17:54:24.139Z,93.50
2019-03-29T17:56:51.703Z,93.90
2019-03-29T17:59:19.408Z,94.80
2019-03-29T18:01:47.214Z,96.10
2019-03-29T18:04:14.550Z,97.30
2019-03-29T18:06:42.088Z,98.10
2019-03-29T18:09:09.647Z,99.30
2019-03-29T18:11:37.203Z,99.70
2019-03-29T18:14:04.772Z,99.90
2019-03-29T18:16:32.307Z,99.90
2019-03-29T18:18:59.863Z,99.40
2019-03-29T18:21:27.420Z,99.60
2019-03-29T18:23:54.958Z,99.90
2019-03-29T18:26:22.513Z,99.90
2019-03-29T18:28:50.051Z,99.90
2019-03-29T18:31:18.378Z,99.90
2019-03-29T18:33:45.912Z,99.90
2019-03-29T18:36:13.475Z,99.90
2019-03-29T18:38:41.011Z,99.90
2019-03-29T18:41:08.552Z,99.90
2019-03-29T18:43:36.882Z,99.90
2019-03-29T18:46:04.422Z,99.90
2019-03-29T18:48:31.983Z,99.90
2019-03-29T18:50:59.514Z,99.90
2019-03-29T18:53:27.070Z,99.90
2019-03-29T18:55:54.730Z,99.90
2019-03-29T18:58:22.260Z,99.90
2019-03-29T19:00:49.823Z,99.90
2019-03-29T19:03:17.363Z,99.90
2019-03-29T19:05:44.926Z,99.90
2019-03-29T19:08:12.482Z,99.90
2019-03-29T19:10:40.015Z,99.90
2019-03-29T19:13:07.574Z,99.90
2019-03-29T19:15:35.118Z,99.90
2019-03-29T19:18:02.678Z,99.90
2019-03-29T19:20:30.214Z,99.90
2019-03-29T19:22:57.772Z,99.90
2019-03-29T19:25:25.323Z,99.90
2019-03-29T19:27:52.896Z,99.90
2019-03-29T19:30:20.457Z,99.90
2019-03-29T19:32:56.513Z,99.90
2019-03-29T19:35:24.076Z,99.90
2019-03-29T19:37:51.722Z,99.90
2019-03-29T19:40:20.257Z,99.90
2019-03-29T19:42:47.975Z,99.90
2019-03-29T19:45:15.535Z,99.90
2019-03-29T19:47:43.095Z,99.90
2019-03-29T19:50:10.659Z,99.90
2019-03-29T19:52:38.197Z,99.90
2019-03-29T19:55:05.756Z,99.90
2019-03-29T19:57:33.317Z,99.90
2019-03-29T20:00:01.081Z,99.90
2019-03-29T20:02:28.629Z,99.90
2019-03-29T20:04:56.199Z,99.90
2019-03-29T20:07:23.739Z,99.90
2019-03-29T20:09:51.299Z,99.90
2019-03-29T20:12:18.836Z,99.90
2019-03-29T20:14:48.334Z,99.90
2019-03-29T20:17:27.011Z,99.90
2019-03-29T20:19:43.490Z,99.90
2019-03-29T20:22:11.051Z,99.90
2019-03-29T20:24:38.611Z,99.90
2019-03-29T20:27:06.150Z,99.90
2019-03-29T20:29:33.708Z,99.90
2019-03-29T20:32:01.267Z,99.90
2019-03-29T20:34:28.800Z,99.90
2019-03-29T20:36:57.516Z,99.90
2019-03-29T20:39:25.593Z,99.90
2019-03-29T20:41:53.169Z,99.90
2019-03-29T20:44:20.726Z,99.90
2019-03-29T20:46:48.260Z,99.90
2019-03-29T20:49:15.815Z,99.90
2019-03-29T20:51:44.113Z,99.90
2019-03-29T20:54:11.755Z,99.90
2019-03-29T20:56:39.297Z,99.90
2019-03-29T20:59:06.860Z,99.90
2019-03-29T21:01:34.422Z,99.90
2019-03-29T21:04:01.951Z,99.90
2019-03-29T21:06:29.510Z,99.90
2019-03-29T21:08:58.051Z,99.90
2019-03-29T21:11:25.596Z,99.90
2019-03-29T21:13:53.159Z,99.90
2019-03-29T21:16:20.721Z,99.90
2019-03-29T21:18:48.281Z,99.90
2019-03-29T21:21:15.819Z,99.90
2019-03-29T21:23:47.042Z,99.90
2019-03-29T21:26:12.727Z,99.90
2019-03-29T21:28:40.279Z,99.90
2019-03-29T21:31:08.165Z,99.90
2019-03-29T21:33:35.707Z,99.90
2019-03-29T21:36:03.276Z,99.90
2019-03-29T21:38:30.810Z,99.90
2019-03-29T21:40:58.373Z,99.90
2019-03-29T21:43:26.951Z,99.90
2019-03-29T21:45:54.486Z,99.90
2019-03-29T21:48:29.425Z,99.90
2019-03-29T21:50:49.622Z,99.90
2019-03-29T21:53:17.189Z,99.90
2019-03-29T21:55:44.723Z,99.90
2019-03-29T21:58:13.240Z,99.90
2019-03-29T22:00:40.771Z,99.90
2019-03-29T22:03:09.094Z,99.90
2019-03-29T22:05:36.638Z,99.90
2019-03-29T22:08:04.202Z,99.90
2019-03-29T22:10:32.700Z,99.90
2019-03-29T22:13:00.257Z,99.90
2019-03-29T22:15:27.786Z,99.90
2019-03-29T22:17:55.345Z,99.90
2019-03-29T22:20:22.900Z,99.90
2019-03-29T22:22:50.564Z,99.90
2019-03-29T22:25:18.100Z,99.90
2019-03-29T22:27:45.631Z,99.90
2019-03-29T22:30:13.190Z,99.90
2019-03-29T22:32:44.670Z,99.90
2019-03-29T22:35:12.228Z,99.90
2019-03-29T22:37:39.756Z,99.90
2019-03-29T22:40:08.076Z,99.90
2019-03-29T22:42:35.622Z,99.90
2019-03-29T22:45:03.175Z,99.90
2019-03-29T22:47:30.708Z,99.90
2019-03-29T22:49:59.028Z,99.90
2019-03-29T22:52:26.562Z,99.90
2019-03-29T22:54:54.116Z,99.90
2019-03-29T22:57:22.099Z,99.90
2019-03-29T22:59:50.103Z,99.90
2019-03-29T23:02:17.659Z,99.90
2019-03-29T23:04:45.257Z,99.90
2019-03-29T23:07:12.790Z,99.90
2019-03-29T23:09:40.319Z,99.90
2019-03-29T23:12:07.902Z,99.90
2019-03-29T23:14:35.434Z,99.90
2019-03-29T23:17:02.990Z,99.90
2019-03-29T23:19:30.526Z,99.90
2019-03-29T23:21:58.084Z,99.90
2019-03-29T23:24:25.622Z,99.90
2019-03-29T23:26:54.173Z,99.90
2019-03-29T23:29:21.703Z,99.90
2019-03-29T23:31:49.266Z,99.90
2019-03-29T23:34:16.791Z,99.90
2019-03-29T23:36:44.340Z,99.90
2019-03-29T23:39:11.872Z,99.90
2019-03-29T23:41:40.174Z,99.90
2019-03-29T23:44:07.732Z,99.90
2019-03-29T23:46:35.293Z,99.90
2019-03-29T23:49:02.847Z,99.90
2019-03-29T23:51:30.373Z,99.90
2019-03-29T23:53:58.686Z,99.90
2019-03-29T23:56:26.217Z,99.90
2019-03-29T23:58:53.767Z,99.90
